createdAt,value
2018-05-29T00:00:13.000Z,36.351
2018-05-29T00:10:13.000Z,36.525
2018-05-29T00:20:13.000Z,36.491
2018-05-29T00:30:13.000Z,36.632
2018-05-29T00:40:13.000Z,36.653
2018-05-29T00:50:13.000Z,36.759
2018-05-29T01:00:13.000Z,36.725
2018-05-29T01:10:13.000Z,36.779
2018-05-29T01:20:13.000Z,36.867
2018-05-29T01:30:13.000Z,36.822
2018-05-29T01:40:13.000Z,36.931
2018-05-29T01:50:13.000Z,36.952
2018-05-29T02:00:13.000Z,37.006
2018-05-29T02:10:13.000Z,37.026
2018-05-29T02:20:13.000Z,37.145
2018-05-29T02:30:13.000Z,37.221
2018-05-29T02:40:13.000Z,37.231
2018-05-29T02:50:14.000Z,37.307
2018-05-29T03:00:14.000Z,37.372
2018-05-29T03:10:14.000Z,37.447
2018-05-29T03:20:14.000Z,37.522
2018-05-29T03:30:14.000Z,37.619
2018-05-29T03:40:14.000Z,37.672
2018-05-29T03:50:14.000Z,37.638
2018-05-29T04:00:14.000Z,37.714
2018-05-29T04:10:14.000Z,37.791
2018-05-29T04:20:14.000Z,37.855
2018-05-29T04:30:14.000Z,37.876
2018-05-29T04:40:14.000Z,37.876
2018-05-29T04:50:14.000Z,37.813
2018-05-29T05:00:14.000Z,37.714
2018-05-29T05:10:14.000Z,37.684
2018-05-29T05:20:14.000Z,37.653
2018-05-29T05:30:14.000Z,37.676
2018-05-29T05:40:14.000Z,37.58
2018-05-29T05:50:14.000Z,37.739
2018-05-29T06:00:14.000Z,37.851
2018-05-29T06:10:14.000Z,38.143
2018-05-29T06:20:14.000Z,38.201
2018-05-29T06:30:14.000Z,38.374
2018-05-29T06:40:14.000Z,38.431
2018-05-29T06:50:14.000Z,38.414
2018-05-29T07:00:14.000Z,38.322
2018-05-29T07:10:14.000Z,38.302
2018-05-29T07:20:14.000Z,38.295
2018-05-29T07:40:14.000Z,37.878
2018-05-29T08:00:17.000Z,37.194
2018-05-29T08:10:14.000Z,37.047
2018-05-29T08:20:14.000Z,36.719
2018-05-29T08:30:14.000Z,36.32
2018-05-29T08:40:14.000Z,36.454
2018-05-29T08:50:14.000Z,36.148
2018-05-29T09:00:14.000Z,35.91
2018-05-29T09:10:14.000Z,35.618
2018-05-29T09:20:14.000Z,34.991
2018-05-29T09:30:14.000Z,34.194
2018-05-29T09:40:14.000Z,32.952
2018-05-29T09:50:14.000Z,32.541
2018-05-29T10:00:14.000Z,32.166
2018-05-29T10:10:14.000Z,32.162
2018-05-29T10:20:14.000Z,31.994
2018-05-29T10:30:14.000Z,32.043
2018-05-29T10:40:15.000Z,31.903
2018-05-29T10:50:19.000Z,31.721
2018-05-29T11:00:15.000Z,31.484
2018-05-29T11:10:15.000Z,31.154
2018-05-29T11:20:15.000Z,30.878
2018-05-29T11:30:15.000Z,30.591
2018-05-29T11:40:15.000Z,29.211
2018-05-29T11:50:15.000Z,28.635
2018-05-29T12:00:15.000Z,29.887
2018-05-29T12:10:15.000Z,29.179
2018-05-29T12:20:15.000Z,29.274
2018-05-29T12:30:15.000Z,30.557
2018-05-29T12:40:15.000Z,30.69
2018-05-29T12:50:15.000Z,30.535
2018-05-29T13:00:15.000Z,30.733
2018-05-29T13:10:15.000Z,30.894
2018-05-29T13:20:15.000Z,31.362
2018-05-29T13:30:15.000Z,31.278
2018-05-29T13:40:15.000Z,31.732
2018-05-29T13:50:15.000Z,32.349
2018-05-29T14:00:15.000Z,32.529
2018-05-29T14:10:15.000Z,32.717
2018-05-29T14:20:15.000Z,32.872
2018-05-29T14:30:15.000Z,32.13
2018-05-29T14:40:15.000Z,31.611
2018-05-29T14:50:15.000Z,31.284
2018-05-29T15:00:15.000Z,31.706
2018-05-29T15:10:15.000Z,31.973
2018-05-29T15:20:15.000Z,32.372
2018-05-29T15:30:15.000Z,32.344
2018-05-29T15:40:15.000Z,32.331
2018-05-29T15:50:15.000Z,32.874
2018-05-29T16:00:15.000Z,33.662
2018-05-29T16:10:15.000Z,34.077
2018-05-29T16:20:15.000Z,34.211
2018-05-29T16:30:15.000Z,34.354
2018-05-29T16:40:15.000Z,34.62
2018-05-29T16:50:15.000Z,34.641
2018-05-29T17:00:15.000Z,34.86
2018-05-29T17:10:15.000Z,35.895
2018-05-29T17:20:15.000Z,37.368
2018-05-29T17:30:15.000Z,37.746
2018-05-29T17:40:15.000Z,37.54
2018-05-29T17:50:16.000Z,36.811
2018-05-29T18:00:15.000Z,36.4
2018-05-29T18:10:16.000Z,37.322
2018-05-29T18:20:15.000Z,38.163
2018-05-29T18:30:15.000Z,38.452
2018-05-29T18:40:15.000Z,38.508
2018-05-29T18:50:17.000Z,39.049
2018-05-29T19:00:16.000Z,39.466
2018-05-29T19:10:16.000Z,39.497
2018-05-29T19:20:16.000Z,40.099
2018-05-29T19:30:16.000Z,39.358
2018-05-29T19:40:16.000Z,39.765
2018-05-29T19:50:16.000Z,39.947
2018-05-29T20:00:16.000Z,40.41
2018-05-29T20:10:16.000Z,40.277
2018-05-29T20:20:16.000Z,41.015
2018-05-29T20:30:16.000Z,41.011
2018-05-29T20:40:16.000Z,40.721
2018-05-29T20:50:16.000Z,40.223
2018-05-29T21:00:16.000Z,41.186
2018-05-29T21:10:16.000Z,40.787
2018-05-29T21:20:16.000Z,40.392
2018-05-29T21:30:16.000Z,40.803
2018-05-29T21:40:16.000Z,40.714
2018-05-29T21:50:16.000Z,40.747
2018-05-29T22:10:16.000Z,41.542
2018-05-29T22:20:16.000Z,41.714
2018-05-29T22:30:16.000Z,42.229
2018-05-29T22:40:16.000Z,40.866
2018-05-29T22:50:16.000Z,41.308
2018-05-29T23:00:16.000Z,42.015
2018-05-29T23:10:17.000Z,42.74
2018-05-29T23:20:16.000Z,42.444
2018-05-29T23:30:16.000Z,42.862
2018-05-29T23:40:16.000Z,43.878
2018-05-29T23:50:16.000Z,45.216
